Time;durP1;ratioP1;P1;durP2;ratioP2;P2;SDS_P1;SDS_P2;PMS_P1;PMS_P2;Temp;Humidity;BMP_temperature;BMP_pressure;BME280_temperature;BME280_humidity;BME280_pressure;Samples;Min_cycle;Max_cycle;Signal;HPM_P1;HPM_P2
2023/10/25 00:02:22;;;;;;;;;;;;;;;13.31;61.50;99213.94;6153846;23;6766;-75
2023/10/25 00:04:54;;;;;;;;;;;;;;;13.32;62.07;99213.09;6156023;23;6758;-75
2023/10/25 00:07:20;;;;;;;;;;;;;;;13.37;61.93;99213.16;6155141;23;6791;-76
2023/10/25 00:09:46;;;;;;;;;;;;;;;13.40;61.70;99213.22;6156118;23;6962;-74
2023/10/25 00:12:11;;;;;;;;;;;;;;;13.41;61.48;99212.38;6129742;23;6941;-74
2023/10/25 00:14:37;;;;;;;;;;;;;;;13.43;61.46;99218.44;6153913;23;6750;-76
2023/10/25 00:17:02;;;;;;;;;;;;;;;13.47;61.68;99216.78;6130529;23;6894;-75
2023/10/25 00:19:28;;;;;;;;;;;;;;;13.49;61.72;99211.69;6105566;23;8406;-75
2023/10/25 00:21:54;;;;;;;;;;;;;;;13.53;61.91;99213.47;6129026;23;6838;-74
2023/10/25 00:24:19;;;;;;;;;;;;;;;13.56;61.25;99209.22;6160272;23;6882;-76
2023/10/25 00:26:45;;;;;;;;;;;;;;;13.59;61.26;99214.44;6133684;23;6960;-75
2023/10/25 00:29:10;;;;;;;;;;;;;;;13.62;62.29;99216.22;6108063;23;7012;-74
2023/10/25 00:31:36;;;;;;;;;;;;;;;13.66;61.29;99212.81;6155807;23;7030;-75
2023/10/25 00:34:03;;;;;;;;;;;;;;;13.69;61.49;99212.03;6106427;23;6946;-74
2023/10/25 00:36:29;;;;;;;;;;;;;;;13.71;61.85;99215.47;6132465;23;6771;-76
2023/10/25 00:38:55;;;;;;;;;;;;;;;13.72;61.62;99209.47;6130356;23;7080;-75
2023/10/25 00:41:20;;;;;;;;;;;;;;;13.73;61.31;99209.53;6132344;23;6767;-75
2023/10/25 00:43:46;;;;;;;;;;;;;;;13.77;61.18;99209.56;6111847;23;7019;-75
2023/10/25 00:46:19;;;;;;;;;;;;;;;13.78;61.49;99206.13;6135368;23;6763;-75
2023/10/25 00:48:49;;;;;;;;;;;;;;;13.80;61.81;99201.88;6160439;23;7198;-75
2023/10/25 00:51:17;;;;;;;;;;;;;;;13.82;61.01;99197.63;6135594;23;6986;-75
2023/10/25 00:53:49;;;;;;;;;;;;;;;13.82;61.23;99189.91;6134436;23;7012;-74
2023/10/25 00:56:16;;;;;;;;;;;;;;;13.87;60.86;99195.97;6159596;23;6774;-75
2023/10/25 00:58:49;;;;;;;;;;;;;;;13.91;61.78;99195.19;6132505;23;6838;-76
2023/10/25 01:01:19;;;;;;;;;;;;;;;13.93;61.86;99188.34;6133173;23;6959;-74
2023/10/25 01:03:45;;;;;;;;;;;;;;;13.94;60.92;99190.09;6159489;23;6774;-74
2023/10/25 01:06:11;;;;;;;;;;;;;;;13.96;61.41;99192.69;6158590;23;7283;-75
2023/10/25 01:08:37;;;;;;;;;;;;;;;13.97;61.11;99190.13;6132172;23;6763;-75
2023/10/25 01:11:04;;;;;;;;;;;;;;;13.98;61.06;99191.00;6158558;23;6834;-74
2023/10/25 01:13:29;;;;;;;;;;;;;;;13.97;60.67;99184.97;6160549;23;6835;-75
2023/10/25 01:15:55;;;;;;;;;;;;;;;13.98;61.11;99189.28;6155223;23;7045;-74
2023/10/25 01:18:20;;;;;;;;;;;;;;;13.98;60.78;99175.53;6132102;23;6841;-75
2023/10/25 01:20:46;;;;;;;;;;;;;;;13.96;60.86;99170.38;6133886;23;6763;-75
2023/10/25 01:23:12;;;;;;;;;;;;;;;13.96;60.35;99169.50;6109142;23;8434;-74
2023/10/25 01:25:40;;;;;;;;;;;;;;;13.96;61.37;99166.94;6108690;23;7104;-76
2023/10/25 01:28:06;;;;;;;;;;;;;;;13.94;60.73;99164.31;6133268;23;6778;-75
2023/10/25 01:30:32;;;;;;;;;;;;;;;13.91;60.39;99148.84;6153987;23;7111;-75
2023/10/25 01:33:01;;;;;;;;;;;;;;;13.90;60.59;99147.09;6127261;23;6955;-75
2023/10/25 01:35:27;;;;;;;;;;;;;;;13.89;61.15;99161.69;6153060;23;6774;-75
2023/10/25 01:37:53;;;;;;;;;;;;;;;13.88;61.07;99154.81;6150877;23;6770;-76
2023/10/25 01:40:19;;;;;;;;;;;;;;;13.87;61.41;99149.63;6127277;23;7034;-75
2023/10/25 01:42:44;;;;;;;;;;;;;;;13.85;60.84;99148.75;6127895;23;6766;-76
2023/10/25 01:45:11;;;;;;;;;;;;;;;13.85;60.82;99143.59;6151720;23;6814;-75
2023/10/25 01:47:38;;;;;;;;;;;;;;;13.85;61.31;99148.75;6153739;23;6775;-75
2023/10/25 01:50:07;;;;;;;;;;;;;;;13.84;60.50;99147.84;6127956;23;7011;-75
2023/10/25 01:52:34;;;;;;;;;;;;;;;13.82;61.35;99133.25;6152200;23;6782;-74
2023/10/25 01:55:00;;;;;;;;;;;;;;;13.84;61.13;99137.56;6127317;23;6970;-74
2023/10/25 01:57:26;;;;;;;;;;;;;;;13.84;61.16;99123.84;6151744;23;6750;-76
2023/10/25 01:59:52;;;;;;;;;;;;;;;13.85;61.13;99129.00;6129646;23;6881;-75
2023/10/25 02:02:17;;;;;;;;;;;;;;;13.85;60.65;99130.72;6129368;23;6755;-76
2023/10/25 02:04:43;;;;;;;;;;;;;;;13.86;60.93;99119.56;6104537;23;6795;-75
2023/10/25 02:07:09;;;;;;;;;;;;;;;13.87;60.72;99121.28;6128599;23;6775;-76
2023/10/25 02:09:34;;;;;;;;;;;;;;;13.88;61.11;99123.03;6131067;23;6762;-76
2023/10/25 02:12:00;;;;;;;;;;;;;;;13.88;60.95;99112.72;6128867;23;7199;-76
2023/10/25 02:14:26;;;;;;;;;;;;;;;13.86;60.09;99109.25;6130475;23;6792;-76
2023/10/25 02:16:51;;;;;;;;;;;;;;;13.85;60.94;99104.97;6105488;23;7060;-75
2023/10/25 02:19:18;;;;;;;;;;;;;;;13.81;60.44;99100.59;6151483;23;6755;-75
2023/10/25 02:21:43;;;;;;;;;;;;;;;13.78;60.13;99087.69;6150370;23;6782;-75
2023/10/25 02:24:14;;;;;;;;;;;;;;;13.71;60.31;99087.63;6126517;23;6746;-74
2023/10/25 02:26:41;;;;;;;;;;;;;;;13.68;60.44;99084.13;6130686;23;6990;-74
2023/10/25 02:29:07;;;;;;;;;;;;;;;13.65;60.52;99084.06;6155102;23;7006;-76
2023/10/25 02:31:34;;;;;;;;;;;;;;;13.60;60.91;99078.84;6127928;23;6801;-76
2023/10/25 02:34:00;;;;;;;;;;;;;;;13.56;60.92;99077.94;6131022;23;6784;-75
2023/10/25 02:36:25;;;;;;;;;;;;;;;13.53;59.92;99077.06;6105868;23;6920;-74
2023/10/25 02:38:51;;;;;;;;;;;;;;;13.49;60.43;99071.00;6105572;23;6941;-75
2023/10/25 02:41:17;;;;;;;;;;;;;;;13.47;60.69;99068.38;6131452;23;6766;-76
2023/10/25 02:43:43;;;;;;;;;;;;;;;13.46;60.95;99058.06;6131879;23;6924;-76
2023/10/25 02:46:11;;;;;;;;;;;;;;;13.45;60.85;99062.34;6131729;23;6775;-74
2023/10/25 02:48:36;;;;;;;;;;;;;;;13.45;61.10;99067.50;6155682;23;7207;-75
2023/10/25 02:51:04;;;;;;;;;;;;;;;13.45;60.42;99057.22;6130005;23;6762;-76
2023/10/25 02:53:33;;;;;;;;;;;;;;;13.46;60.80;99048.63;6107204;23;7064;-75
2023/10/25 02:56:01;;;;;;;;;;;;;;;13.47;60.95;99055.50;6131326;23;6964;-75
2023/10/25 02:58:27;;;;;;;;;;;;;;;13.52;61.83;99052.13;6130578;23;6906;-76
2023/10/25 03:00:53;;;;;;;;;;;;;;;13.55;61.63;99044.47;6129354;23;6846;-74
2023/10/25 03:03:18;;;;;;;;;;;;;;;13.57;61.22;99045.34;6129839;23;6784;-76
2023/10/25 03:05:44;;;;;;;;;;;;;;;13.59;61.29;99043.66;6106759;23;7087;-74
2023/10/25 03:08:10;;;;;;;;;;;;;;;13.59;61.58;99044.53;6130569;23;6766;-75
2023/10/25 03:10:35;;;;;;;;;;;;;;;13.61;61.40;99049.69;6156608;23;6847;-75
2023/10/25 03:13:02;;;;;;;;;;;;;;;13.60;61.40;99056.56;6129173;23;6758;-76
2023/10/25 03:15:28;;;;;;;;;;;;;;;13.59;61.07;99054.84;6130022;23;6774;-75
2023/10/25 03:17:54;;;;;;;;;;;;;;;13.59;60.95;99044.53;6154359;23;6919;-75
2023/10/25 03:20:20;;;;;;;;;;;;;;;13.58;61.74;99045.38;6105250;23;7038;-75
2023/10/25 03:22:46;;;;;;;;;;;;;;;13.57;61.18;99037.63;6154949;23;6838;-75
2023/10/25 03:25:11;;;;;;;;;;;;;;;13.56;60.73;99038.47;6151543;23;6767;-76
2023/10/25 03:27:37;;;;;;;;;;;;;;;13.56;61.62;99041.06;6103369;23;6795;-75
2023/10/25 03:30:04;;;;;;;;;;;;;;;13.56;60.64;99028.19;6102183;23;6989;-76
2023/10/25 03:32:30;;;;;;;;;;;;;;;13.55;61.50;99035.03;6125827;23;7028;-74
2023/10/25 03:34:56;;;;;;;;;;;;;;;13.54;60.80;99028.16;6130623;23;6962;-76
2023/10/25 03:37:21;;;;;;;;;;;;;;;13.55;60.85;99031.59;6130470;23;6817;-76
2023/10/25 03:39:47;;;;;;;;;;;;;;;13.55;61.28;99031.59;6131660;23;6750;-77
2023/10/25 03:42:13;;;;;;;;;;;;;;;13.55;61.31;99023.88;6103255;23;6951;-77
2023/10/25 03:44:39;;;;;;;;;;;;;;;13.54;60.59;99017.00;6157042;23;6747;-75
2023/10/25 03:47:04;;;;;;;;;;;;;;;13.55;60.73;99022.16;6126025;23;6852;-76
2023/10/25 03:49:30;;;;;;;;;;;;;;;13.56;61.07;99020.47;6104657;23;6977;-76
2023/10/25 03:51:55;;;;;;;;;;;;;;;13.55;61.45;99008.44;6130865;23;6751;-76
2023/10/25 03:54:22;;;;;;;;;;;;;;;13.53;60.77;99004.97;6150850;23;6754;-76
2023/10/25 03:56:47;;;;;;;;;;;;;;;13.47;61.06;99000.59;6147655;23;6985;-77
2023/10/25 03:59:13;;;;;;;;;;;;;;;13.43;60.41;98996.22;6121017;23;8925;-77
2023/10/25 04:01:39;;;;;;;;;;;;;;;13.39;60.91;98989.31;6146327;23;7003;-75
2023/10/25 04:04:06;;;;;;;;;;;;;;;13.33;61.27;98993.53;6146173;23;6779;-74
2023/10/25 04:06:32;;;;;;;;;;;;;;;13.28;60.89;98996.88;6144151;23;6778;-73
2023/10/25 04:08:58;;;;;;;;;;;;;;;13.27;61.31;98996.00;6148232;23;6851;-77
2023/10/25 04:11:23;;;;;;;;;;;;;;;13.26;61.47;98990.84;6147229;23;7178;-76
2023/10/25 04:13:49;;;;;;;;;;;;;;;13.24;61.09;98990.81;6095436;23;6951;-75
2023/10/25 04:16:15;;;;;;;;;;;;;;;13.24;61.55;98997.69;6095820;23;7354;-76
2023/10/25 04:18:41;;;;;;;;;;;;;;;13.19;60.51;98989.91;6121889;23;6977;-77
2023/10/25 04:21:12;;;;;;;;;;;;;;;13.18;61.22;98986.44;6122123;23;6770;-76
2023/10/25 04:23:38;;;;;;;;;;;;;;;13.13;60.84;98982.94;6147593;23;6787;-76
2023/10/25 04:26:05;;;;;;;;;;;;;;;13.11;61.66;98989.75;6146144;23;6778;-76
2023/10/25 04:28:31;;;;;;;;;;;;;;;13.09;61.17;98983.72;6122013;23;6983;-76
2023/10/25 04:30:56;;;;;;;;;;;;;;;13.09;61.14;98976.03;6121382;23;6821;-77
2023/10/25 04:33:22;;;;;;;;;;;;;;;13.07;61.29;98982.84;6122286;23;6762;-76
2023/10/25 04:35:47;;;;;;;;;;;;;;;13.06;61.44;98975.97;6149650;23;7137;-76
2023/10/25 04:38:13;;;;;;;;;;;;;;;13.05;61.39;98972.53;6122875;23;6889;-76
2023/10/25 04:40:39;;;;;;;;;;;;;;;13.02;61.30;98969.94;6122600;23;6771;-76
2023/10/25 04:43:04;;;;;;;;;;;;;;;13.03;61.77;98960.47;6098168;23;6933;-74
2023/10/25 04:45:30;;;;;;;;;;;;;;;13.02;61.99;98962.22;6121283;23;6762;-75
2023/10/25 04:47:56;;;;;;;;;;;;;;;13.00;61.04;98956.19;6132451;23;6833;-77
2023/10/25 04:50:21;;;;;;;;;;;;;;;13.01;60.88;98960.47;6123728;23;7092;-79
2023/10/25 04:52:50;;;;;;;;;;;;;;;13.00;60.93;98961.31;6121335;23;6759;-78
2023/10/25 04:55:16;;;;;;;;;;;;;;;12.99;61.75;98958.72;6121945;23;6958;-79
2023/10/25 04:57:42;;;;;;;;;;;;;;;12.97;61.33;98950.13;6121497;23;7200;-78
2023/10/25 05:00:09;;;;;;;;;;;;;;;12.95;61.87;98941.53;6122278;23;6949;-76
2023/10/25 05:02:38;;;;;;;;;;;;;;;12.95;61.04;98941.53;6121204;23;7501;-76
2023/10/25 05:05:08;;;;;;;;;;;;;;;12.91;61.16;98926.03;6122236;23;6980;-71
2023/10/25 05:07:37;;;;;;;;;;;;;;;12.90;61.26;98926.88;6121886;23;6779;-72
2023/10/25 05:10:08;;;;;;;;;;;;;;;12.88;61.85;98915.72;6122103;23;7072;-72
2023/10/25 05:12:42;;;;;;;;;;;;;;;12.86;61.70;98916.53;6146007;23;8066;-72
2023/10/25 05:15:10;;;;;;;;;;;;;;;12.85;61.37;98920.81;6148745;23;6779;-72
2023/10/25 05:17:38;;;;;;;;;;;;;;;12.83;61.10;98919.91;6148473;23;6774;-72
2023/10/25 05:20:05;;;;;;;;;;;;;;;12.82;62.11;98915.59;6147520;23;6925;-71
2023/10/25 05:22:39;;;;;;;;;;;;;;;12.81;61.66;98911.31;6147748;23;6922;-72
2023/10/25 05:25:08;;;;;;;;;;;;;;;12.82;61.82;98907.91;6123696;23;6775;-72
2023/10/25 05:27:36;;;;;;;;;;;;;;;12.83;61.96;98917.34;6118224;23;6906;-72
2023/10/25 05:30:04;;;;;;;;;;;;;;;12.82;62.11;98907.06;6123836;23;6846;-72
2023/10/25 05:32:37;;;;;;;;;;;;;;;12.86;61.86;98906.25;6123618;23;6979;-72
2023/10/25 05:35:05;;;;;;;;;;;;;;;12.86;61.91;98901.97;6149156;23;6926;-73
2023/10/25 05:37:32;;;;;;;;;;;;;;;12.88;62.13;98900.28;6122992;23;6839;-72
2023/10/25 05:39:58;;;;;;;;;;;;;;;12.89;62.18;98886.59;6123808;23;7226;-73
2023/10/25 05:42:25;;;;;;;;;;;;;;;12.92;61.96;98886.63;6149127;23;7901;-72
2023/10/25 05:44:53;;;;;;;;;;;;;;;12.96;61.80;98876.41;6124114;23;6918;-73
2023/10/25 05:47:24;;;;;;;;;;;;;;;12.98;61.69;98879.84;6098836;23;6960;-71
2023/10/25 05:49:50;;;;;;;;;;;;;;;13.01;61.55;98875.59;6149199;23;6778;-72
2023/10/25 05:52:17;;;;;;;;;;;;;;;13.04;61.97;98870.50;6122604;23;7023;-72
2023/10/25 05:54:43;;;;;;;;;;;;;;;13.09;61.73;98870.56;6123649;23;6915;-72
2023/10/25 05:57:09;;;;;;;;;;;;;;;13.11;61.69;98861.16;6122946;23;6860;-72
2023/10/25 05:59:35;;;;;;;;;;;;;;;13.13;62.11;98861.19;6098967;23;6848;-71
2023/10/25 06:02:17;;;;;;;;;;;;;;;13.19;62.56;98856.97;6097671;23;7002;-73
2023/10/25 06:04:43;;;;;;;;;;;;;;;13.22;61.61;98857.84;6123786;23;6941;-72
2023/10/25 06:07:11;;;;;;;;;;;;;;;13.26;62.20;98849.34;6122795;23;6779;-74
2023/10/25 06:09:38;;;;;;;;;;;;;;;13.30;62.00;98840.78;6149690;23;7695;-74
2023/10/25 06:12:05;;;;;;;;;;;;;;;13.34;62.16;98832.28;6120601;23;6986;-75
2023/10/25 06:14:31;;;;;;;;;;;;;;;13.40;61.62;98831.50;6124079;23;6779;-74
2023/10/25 06:16:59;;;;;;;;;;;;;;;13.47;62.51;98834.19;6123733;23;6771;-74
2023/10/25 06:19:25;;;;;;;;;;;;;;;13.52;62.19;98826.50;6123836;23;6770;-74
2023/10/25 06:21:51;;;;;;;;;;;;;;;13.57;62.08;98823.97;6099297;23;6954;-74
2023/10/25 06:24:17;;;;;;;;;;;;;;;13.60;62.40;98816.28;6150271;23;6770;-75
2023/10/25 06:26:43;;;;;;;;;;;;;;;13.65;61.66;98816.31;6123073;23;6766;-75
2023/10/25 06:29:09;;;;;;;;;;;;;;;13.67;61.87;98814.66;6120617;23;6751;-72
2023/10/25 06:31:34;;;;;;;;;;;;;;;13.69;61.88;98802.66;6122764;23;6827;-73
2023/10/25 06:34:00;;;;;;;;;;;;;;;13.71;62.09;98803.53;6095630;23;6978;-72
2023/10/25 06:36:26;;;;;;;;;;;;;;;13.72;61.89;98795.81;6120610;23;6763;-73
2023/10/25 06:38:52;;;;;;;;;;;;;;;13.77;61.30;98784.69;6098449;23;7031;-73
2023/10/25 06:41:22;;;;;;;;;;;;;;;13.80;61.44;98780.44;6121181;23;6774;-72
2023/10/25 06:43:48;;;;;;;;;;;;;;;13.83;61.37;98770.16;6146118;23;7237;-72
2023/10/25 06:46:15;;;;;;;;;;;;;;;13.88;61.77;98770.19;6123003;23;7396;-72
2023/10/25 06:48:41;;;;;;;;;;;;;;;13.92;61.25;98763.38;6121893;23;6779;-72
2023/10/25 06:51:08;;;;;;;;;;;;;;;13.97;61.28;98761.69;6122483;23;6767;-73
2023/10/25 06:53:36;;;;;;;;;;;;;;;14.01;60.80;98753.13;6122155;23;6774;-72
2023/10/25 06:56:03;;;;;;;;;;;;;;;14.02;61.55;98745.44;6123095;23;6911;-73
2023/10/25 06:58:29;;;;;;;;;;;;;;;14.09;61.02;98751.47;6127762;23;6770;-74
2023/10/25 07:00:56;;;;;;;;;;;;;;;14.12;61.46;98736.03;6178913;23;6830;-74
2023/10/25 07:03:34;;;;;;;;;;;;;;;14.19;61.59;98739.50;6142907;23;8710;-75
2023/10/25 07:06:03;;;;;;;;;;;;;;;14.22;61.11;98734.41;6146926;23;6846;-74
2023/10/25 07:08:30;;;;;;;;;;;;;;;14.29;60.81;98730.13;6098137;23;7609;-73
2023/10/25 07:10:56;;;;;;;;;;;;;;;14.34;60.71;98719.84;6121954;23;7042;-75
2023/10/25 07:13:24;;;;;;;;;;;;;;;14.37;60.93;98715.59;6145428;23;6754;-74
2023/10/25 07:15:51;;;;;;;;;;;;;;;14.42;60.88;98710.47;6147288;23;6965;-74
2023/10/25 07:18:16;;;;;;;;;;;;;;;14.45;60.65;98702.72;6097030;23;7143;-74
2023/10/25 07:20:42;;;;;;;;;;;;;;;14.52;61.08;98701.03;6145545;23;6972;-74
2023/10/25 07:23:08;;;;;;;;;;;;;;;14.56;60.71;98695.91;6143674;23;6829;-74
2023/10/25 07:25:34;;;;;;;;;;;;;;;14.62;60.62;98686.47;6147295;23;6758;-74
2023/10/25 07:28:00;;;;;;;;;;;;;;;14.64;60.11;98685.66;6143700;23;6766;-73
2023/10/25 07:30:26;;;;;;;;;;;;;;;14.68;60.76;98679.63;6145398;23;6967;-75
2023/10/25 07:32:51;;;;;;;;;;;;;;;14.69;60.79;98671.03;6146950;23;7332;-73
2023/10/25 07:35:17;;;;;;;;;;;;;;;14.72;60.35;98681.38;6147751;23;6754;-73
2023/10/25 07:37:43;;;;;;;;;;;;;;;14.74;60.39;98683.97;6122120;23;6945;-74
2023/10/25 07:40:09;;;;;;;;;;;;;;;14.77;60.00;98672.81;6146708;23;7057;-74
2023/10/25 07:42:35;;;;;;;;;;;;;;;14.77;60.45;98672.81;6144948;23;6847;-74
2023/10/25 07:45:00;;;;;;;;;;;;;;;14.79;60.44;98673.69;6148381;23;6754;-74
2023/10/25 07:47:26;;;;;;;;;;;;;;;14.76;60.59;98671.09;6146322;23;6762;-74
2023/10/25 07:49:51;;;;;;;;;;;;;;;14.74;60.82;98663.34;6146074;23;6978;-75
2023/10/25 07:52:18;;;;;;;;;;;;;;;14.69;60.50;98652.97;6145858;23;7046;-74
2023/10/25 07:54:44;;;;;;;;;;;;;;;14.66;60.39;98641.78;6122290;23;6940;-73
2023/10/25 07:57:09;;;;;;;;;;;;;;;14.63;60.77;98639.22;6121173;23;7252;-73
2023/10/25 07:59:36;;;;;;;;;;;;;;;14.61;60.73;98630.63;6145224;23;6763;-73
2023/10/25 08:02:02;;;;;;;;;;;;;;;14.57;60.78;98628.00;6145945;23;6774;-74
2023/10/25 08:04:28;;;;;;;;;;;;;;;14.56;60.73;98625.44;6146644;23;6962;-74
2023/10/25 08:06:53;;;;;;;;;;;;;;;14.52;61.00;98606.53;6148416;23;6993;-73
2023/10/25 08:09:19;;;;;;;;;;;;;;;14.50;60.76;98602.22;6149106;23;6900;-73
2023/10/25 08:11:45;;;;;;;;;;;;;;;14.46;61.10;98598.78;6121109;23;7213;-74
2023/10/25 08:14:11;;;;;;;;;;;;;;;14.44;60.84;98600.50;6146561;23;7194;-74
2023/10/25 08:16:40;;;;;;;;;;;;;;;14.41;61.45;98600.50;6146775;23;6755;-74
2023/10/25 08:19:08;;;;;;;;;;;;;;;14.40;60.59;98601.34;6146379;23;6928;-74
2023/10/25 08:21:35;;;;;;;;;;;;;;;14.39;61.30;98597.91;6149185;23;6774;-74
2023/10/25 08:24:05;;;;;;;;;;;;;;;14.39;61.05;98594.44;6146388;23;7063;-74
2023/10/25 08:26:36;;;;;;;;;;;;;;;14.37;61.29;98599.63;6146518;23;7091;-75
2023/10/25 08:29:02;;;;;;;;;;;;;;;14.37;61.06;98588.44;6146272;23;6826;-74
2023/10/25 08:31:28;;;;;;;;;;;;;;;14.39;61.26;98597.03;6121250;23;7067;-74
2023/10/25 08:33:54;;;;;;;;;;;;;;;14.39;61.21;98587.59;6122314;23;8012;-78
2023/10/25 08:36:19;;;;;;;;;;;;;;;14.42;61.75;98585.00;6107552;23;6933;-78
2023/10/25 08:38:45;;;;;;;;;;;;;;;14.45;61.95;98589.31;6131967;23;6811;-77
2023/10/25 08:41:11;;;;;;;;;;;;;;;14.48;61.63;98573.84;6117094;23;6843;-77
2023/10/25 08:43:40;;;;;;;;;;;;;;;14.52;61.34;98570.44;6131867;23;6766;-78
2023/10/25 08:46:06;;;;;;;;;;;;;;;14.54;61.46;98568.72;6130645;23;6779;-75
2023/10/25 08:48:32;;;;;;;;;;;;;;;14.57;62.05;98552.41;6133048;23;6913;-76
2023/10/25 08:51:00;;;;;;;;;;;;;;;14.60;61.25;98551.56;6157802;23;6850;-77
2023/10/25 08:53:27;;;;;;;;;;;;;;;14.64;61.35;98548.13;6132614;23;6914;-77
2023/10/25 08:55:56;;;;;;;;;;;;;;;14.67;61.72;98553.28;6158191;23;7320;-77
2023/10/25 08:58:26;;;;;;;;;;;;;;;14.71;61.75;98545.53;6133017;23;6847;-77
2023/10/25 09:00:55;;;;;;;;;;;;;;;14.76;61.29;98537.00;6131567;23;6970;-76
2023/10/25 09:03:41;;;;;;;;;;;;;;;14.82;61.72;98542.16;6133646;23;6952;-78
2023/10/25 09:06:08;;;;;;;;;;;;;;;14.86;61.14;98523.25;6159246;23;7010;-78
2023/10/25 09:08:35;;;;;;;;;;;;;;;14.90;61.16;98519.81;6134248;23;6775;-78
2023/10/25 09:11:04;;;;;;;;;;;;;;;14.93;61.62;98524.13;6156484;23;6775;-77
2023/10/25 09:13:32;;;;;;;;;;;;;;;14.96;60.95;98518.94;6133636;23;6778;-77
2023/10/25 09:16:08;;;;;;;;;;;;;;;14.97;61.29;98506.06;6133703;23;6843;-78
2023/10/25 09:18:35;;;;;;;;;;;;;;;15.01;61.31;98501.75;6134403;23;7273;-77
2023/10/25 09:21:03;;;;;;;;;;;;;;;15.05;60.91;98488.00;6156474;23;6972;-78
2023/10/25 09:23:29;;;;;;;;;;;;;;;15.09;60.99;98488.84;6108268;23;6954;-76
2023/10/25 09:25:57;;;;;;;;;;;;;;;15.11;61.04;98481.97;6133858;23;6774;-78
2023/10/25 09:28:27;;;;;;;;;;;;;;;15.14;60.74;98472.50;6157058;23;6927;-77
2023/10/25 09:31:01;;;;;;;;;;;;;;;15.17;60.52;98471.63;6135503;23;6771;-76
2023/10/25 09:33:31;;;;;;;;;;;;;;;15.20;60.49;98471.63;6130287;23;6958;-76
2023/10/25 09:35:57;;;;;;;;;;;;;;;15.22;60.70;98474.22;6159964;23;6780;-76
2023/10/25 09:38:24;;;;;;;;;;;;;;;15.25;60.31;98463.88;6126371;23;8746;-76
2023/10/25 09:40:51;;;;;;;;;;;;;;;15.29;60.31;98463.03;6153047;23;6786;-76
2023/10/25 09:43:24;;;;;;;;;;;;;;;15.31;60.12;98456.13;6150432;23;7031;-76
2023/10/25 09:45:59;;;;;;;;;;;;;;;15.33;60.42;98456.97;6149514;23;6782;-74
2023/10/25 09:48:31;;;;;;;;;;;;;;;15.36;60.25;98456.13;6145792;23;7053;-73
2023/10/25 09:51:15;;;;;;;;;;;;;;;15.37;60.06;98448.38;6147884;23;6767;-74
2023/10/25 09:54:09;;;;;;;;;;;;;;;15.39;60.41;98441.50;6100799;23;6970;-73
2023/10/25 09:56:36;;;;;;;;;;;;;;;15.45;60.16;98439.72;6147903;23;6786;-73
2023/10/25 09:59:04;;;;;;;;;;;;;;;15.46;60.26;98437.16;6122411;23;6775;-73
2023/10/25 10:01:30;;;;;;;;;;;;;;;15.49;60.02;98436.28;6145754;23;6775;-73
2023/10/25 10:04:12;;;;;;;;;;;;;;;15.52;59.87;98434.56;6122790;23;6774;-73
2023/10/25 10:07:04;;;;;;;;;;;;;;;15.55;59.95;98425.97;6124700;23;6774;-73
2023/10/25 10:09:44;;;;;;;;;;;;;;;15.53;59.62;98417.34;6126226;23;7200;-73
2023/10/25 10:12:11;;;;;;;;;;;;;;;15.56;60.05;98414.75;6147331;23;6771;-73
2023/10/25 10:14:39;;;;;;;;;;;;;;;15.58;60.13;98414.72;6147301;23;6971;-72
2023/10/25 10:17:12;;;;;;;;;;;;;;;15.60;59.88;98406.13;6147362;23;6909;-72
2023/10/25 10:19:43;;;;;;;;;;;;;;;15.59;59.97;98404.41;6147835;23;6977;-72
2023/10/25 10:22:14;;;;;;;;;;;;;;;15.58;59.91;98384.63;6121833;23;7231;-72
2023/10/25 10:24:44;;;;;;;;;;;;;;;15.57;59.82;98382.91;6123933;23;7021;-72
2023/10/25 10:27:12;;;;;;;;;;;;;;;15.53;59.69;98374.31;6145778;23;7213;-73
2023/10/25 10:29:40;;;;;;;;;;;;;;;15.51;59.79;98367.44;6146541;23;6775;-73
2023/10/25 10:32:08;;;;;;;;;;;;;;;15.45;59.78;98368.31;6121803;23;6950;-72
2023/10/25 10:34:56;;;;;;;;;;;;;;;15.39;59.45;98358.03;6147012;23;6767;-71
2023/10/25 10:37:26;;;;;;;;;;;;;;;15.32;59.51;98356.34;6146704;23;6775;-71
2023/10/25 10:39:57;;;;;;;;;;;;;;;15.25;60.35;98355.50;6148245;23;6766;-72
2023/10/25 10:42:30;;;;;;;;;;;;;;;15.17;59.82;98347.78;6146370;23;7022;-72
2023/10/25 10:44:56;;;;;;;;;;;;;;;15.12;59.80;98349.53;6147994;23;6775;-72
2023/10/25 10:47:42;;;;;;;;;;;;;;;15.03;60.30;98345.25;6097962;23;7089;-73
2023/10/25 10:50:20;;;;;;;;;;;;;;;14.98;60.70;98336.69;6149051;23;6958;-71
2023/10/25 10:52:50;;;;;;;;;;;;;;;14.92;60.22;98341.84;6123193;23;6994;-71
2023/10/25 10:55:22;;;;;;;;;;;;;;;14.88;60.37;98340.16;6148720;23;7181;-78
2023/10/25 10:57:48;;;;;;;;;;;;;;;14.85;61.30;98325.53;6147975;23;7894;-75
2023/10/25 11:00:17;;;;;;;;;;;;;;;14.83;61.41;98322.94;6120072;23;7175;-74
2023/10/25 11:02:48;;;;;;;;;;;;;;;14.83;61.17;98325.53;6123338;23;7000;-77
2023/10/25 11:05:19;;;;;;;;;;;;;;;14.82;61.18;98317.78;6146945;23;6833;-75
2023/10/25 11:07:48;;;;;;;;;;;;;;;14.81;61.74;98319.53;6097582;23;6969;-74
2023/10/25 11:10:13;;;;;;;;;;;;;;;14.83;61.91;98311.81;6146192;23;6990;-76
2023/10/25 11:12:40;;;;;;;;;;;;;;;14.86;61.88;98302.31;6122725;23;6758;-77
2023/10/25 11:15:06;;;;;;;;;;;;;;;14.89;61.78;98290.28;6120452;23;7111;-77
2023/10/25 11:17:34;;;;;;;;;;;;;;;14.90;61.68;98298.00;6145789;23;7072;-76
2023/10/25 11:20:00;;;;;;;;;;;;;;;14.91;61.73;98298.88;6146269;23;6877;-77
2023/10/25 11:22:26;;;;;;;;;;;;;;;14.91;61.77;98301.44;6095841;23;6962;-77
2023/10/25 11:24:53;;;;;;;;;;;;;;;14.92;61.52;98296.28;6146682;23;6766;-78
2023/10/25 11:27:20;;;;;;;;;;;;;;;14.93;62.03;98297.13;6121089;23;6783;-77
2023/10/25 11:29:48;;;;;;;;;;;;;;;14.94;61.84;98291.13;6120728;23;7235;-75
2023/10/25 11:32:15;;;;;;;;;;;;;;;14.94;62.46;98293.69;6145225;23;6775;-77
2023/10/25 11:34:42;;;;;;;;;;;;;;;14.96;62.09;98291.97;6145297;23;6767;-78
2023/10/25 11:37:12;;;;;;;;;;;;;;;14.97;62.00;98279.06;6147880;23;6771;-77
2023/10/25 11:39:57;;;;;;;;;;;;;;;14.96;62.03;98286.81;6121363;23;7862;-76
2023/10/25 11:42:26;;;;;;;;;;;;;;;14.93;62.07;98276.50;6146994;23;6763;-77
2023/10/25 11:44:52;;;;;;;;;;;;;;;14.92;62.11;98274.78;6148020;23;6775;-78
2023/10/25 11:47:20;;;;;;;;;;;;;;;14.89;62.16;98264.50;6144687;23;6839;-77
2023/10/25 11:49:56;;;;;;;;;;;;;;;14.88;62.39;98262.78;6146464;23;6978;-78
2023/10/25 11:52:23;;;;;;;;;;;;;;;14.85;62.38;98249.00;6145357;23;6783;-76
2023/10/25 11:54:55;;;;;;;;;;;;;;;14.84;62.58;98257.63;6121373;23;6961;-77
2023/10/25 11:57:29;;;;;;;;;;;;;;;14.82;62.45;98249.03;6120064;23;6958;-77
2023/10/25 11:59:55;;;;;;;;;;;;;;;14.84;63.22;98247.31;6145874;23;6997;-77
2023/10/25 12:02:26;;;;;;;;;;;;;;;14.88;62.74;98252.47;6119238;23;6751;-77
2023/10/25 12:04:56;;;;;;;;;;;;;;;14.89;63.19;98241.28;6122795;23;7015;-74
2023/10/25 12:07:23;;;;;;;;;;;;;;;14.89;62.88;98244.72;6134869;23;7062;-73
2023/10/25 12:09:53;;;;;;;;;;;;;;;14.91;63.35;98242.97;6165369;23;6842;-74
2023/10/25 12:12:20;;;;;;;;;;;;;;;14.91;63.27;98232.66;6137788;23;7001;-74
2023/10/25 12:14:46;;;;;;;;;;;;;;;14.94;63.11;98237.81;6163008;23;7095;-73
2023/10/25 12:17:13;;;;;;;;;;;;;;;14.96;63.23;98235.22;6137707;23;6906;-74
2023/10/25 12:19:39;;;;;;;;;;;;;;;14.97;62.85;98229.22;6114025;23;7124;-74
2023/10/25 12:22:12;;;;;;;;;;;;;;;14.97;62.94;98231.81;6162910;23;6923;-74
2023/10/25 12:24:42;;;;;;;;;;;;;;;14.97;63.78;98226.63;6130387;23;6775;-77
2023/10/25 12:27:09;;;;;;;;;;;;;;;14.98;63.40;98226.63;6146308;23;7076;-78
2023/10/25 12:29:35;;;;;;;;;;;;;;;15.01;63.00;98223.16;6120571;23;7948;-78
2023/10/25 12:32:03;;;;;;;;;;;;;;;15.02;63.48;98224.88;6120791;23;6929;-76
2023/10/25 12:34:29;;;;;;;;;;;;;;;15.03;63.36;98221.44;6145569;23;6961;-76
2023/10/25 12:36:55;;;;;;;;;;;;;;;15.05;63.35;98224.00;6121761;23;6903;-76
2023/10/25 12:39:20;;;;;;;;;;;;;;;15.08;63.25;98211.09;6122313;23;6956;-78
2023/10/25 12:41:47;;;;;;;;;;;;;;;15.11;63.28;98213.63;6147637;23;6790;-76
2023/10/25 12:44:13;;;;;;;;;;;;;;;15.14;63.61;98208.47;6146669;23;6843;-77
2023/10/25 12:46:39;;;;;;;;;;;;;;;15.16;63.60;98203.28;6123276;23;6762;-78
2023/10/25 12:49:10;;;;;;;;;;;;;;;15.15;63.12;98189.56;6097341;23;6895;-78
2023/10/25 12:51:37;;;;;;;;;;;;;;;15.17;62.89;98190.41;6119240;23;7233;-78
2023/10/25 12:54:02;;;;;;;;;;;;;;;15.16;63.39;98177.50;6121527;23;7308;-78
2023/10/25 12:56:29;;;;;;;;;;;;;;;15.16;63.36;98180.94;6121489;23;6764;-78
2023/10/25 12:58:55;;;;;;;;;;;;;;;15.16;63.38;98180.94;6114030;23;6775;-78
2023/10/25 13:01:22;;;;;;;;;;;;;;;15.16;63.49;98175.78;6096385;23;7171;-77